Time;durP1;ratioP1;P1;durP2;ratioP2;P2;SDS_P1;SDS_P2;PMS_P1;PMS_P2;Temp;Humidity;BMP_temperature;BMP_pressure;BME280_temperature;BME280_humidity;BME280_pressure;Samples;Min_cycle;Max_cycle;Signal;HPM_P1;HPM_P2
2022/01/23 00:01:52;;;;;;;2.50;2.40;;;5.20;99.90;;;;;;5028833;28;20252;-61
2022/01/23 00:04:20;;;;;;;2.50;2.40;;;5.20;99.90;;;;;;5025942;28;20207;-61
2022/01/23 00:06:48;;;;;;;2.40;2.30;;;5.20;99.90;;;;;;5044361;28;20275;-62
2022/01/23 00:09:17;;;;;;;2.63;2.43;;;5.20;99.90;;;;;;5034310;28;20209;-62
2022/01/23 00:11:50;;;;;;;2.53;2.33;;;5.30;99.90;;;;;;5028066;28;20232;-62
2022/01/23 00:17:20;;;;;;;2.50;2.40;;;5.20;99.90;;;;;;5019043;28;20267;-61
2022/01/23 00:19:51;;;;;;;2.53;2.43;;;5.30;99.90;;;;;;5018691;28;20213;-63
2022/01/23 00:22:20;;;;;;;2.40;2.30;;;5.40;99.90;;;;;;5017390;28;20237;-63
2022/01/23 00:30:23;;;;;;;2.40;2.30;;;5.30;99.90;;;;;;5028640;28;20260;-61
2022/01/23 00:32:50;;;;;;;2.23;2.13;;;5.20;99.90;;;;;;5029267;28;20590;-62
2022/01/23 00:35:19;;;;;;;2.30;2.20;;;5.20;99.90;;;;;;5044914;28;20200;-61
2022/01/23 00:37:46;;;;;;;2.20;2.10;;;5.20;99.90;;;;;;5053303;28;20769;-61
2022/01/23 00:40:13;;;;;;;2.00;1.90;;;5.20;99.90;;;;;;5052731;28;20557;-62
2022/01/23 00:42:40;;;;;;;2.10;2.00;;;5.20;99.90;;;;;;5052417;28;20232;-61
2022/01/23 00:45:25;;;;;;;2.00;1.90;;;5.20;99.90;;;;;;5052055;28;20246;-61
2022/01/23 00:47:54;;;;;;;2.20;2.10;;;5.30;99.90;;;;;;5051998;28;20580;-64
2022/01/23 00:50:23;;;;;;;2.10;2.00;;;5.20;99.90;;;;;;5049294;28;20628;-62
2022/01/23 00:52:50;;;;;;;2.30;2.20;;;5.20;99.90;;;;;;5041201;28;20264;-61
2022/01/23 00:55:17;;;;;;;1.90;1.80;;;5.30;99.90;;;;;;5055055;28;20573;-61
2022/01/23 00:57:44;;;;;;;2.17;2.07;;;5.30;99.90;;;;;;5055662;28;20234;-62
2022/01/23 01:00:11;;;;;;;2.00;1.90;;;5.30;99.90;;;;;;5055809;28;20206;-61
2022/01/23 01:02:38;;;;;;;2.03;1.93;;;5.30;99.90;;;;;;5055823;28;20661;-61
2022/01/23 01:05:06;;;;;;;1.93;1.83;;;5.30;99.90;;;;;;5043868;28;20291;-62
2022/01/23 01:07:35;;;;;;;2.00;1.90;;;5.40;99.90;;;;;;5047135;28;20234;-61
2022/01/23 01:10:08;;;;;;;2.20;2.10;;;5.40;99.90;;;;;;5051053;28;20277;-61
2022/01/23 01:12:39;;;;;;;1.83;1.73;;;5.40;99.90;;;;;;5041557;28;20225;-61
2022/01/23 01:31:51;;;;;;;2.07;1.97;;;5.30;99.90;;;;;;5047506;28;20705;-61
2022/01/23 01:34:24;;;;;;;1.83;1.73;;;5.40;99.90;;;;;;5038986;28;20208;-62
2022/01/23 01:36:52;;;;;;;1.77;1.77;;;5.40;99.90;;;;;;5033398;28;20201;-62
2022/01/23 01:39:23;;;;;;;1.93;1.83;;;5.40;99.90;;;;;;5032749;28;20294;-60
2022/01/23 01:41:51;;;;;;;2.03;1.93;;;5.40;99.90;;;;;;5030582;28;20254;-61
2022/01/23 01:44:19;;;;;;;2.03;1.93;;;5.40;99.90;;;;;;5030792;28;20209;-61
2022/01/23 01:46:46;;;;;;;2.10;2.00;;;5.50;99.90;;;;;;5031665;28;20219;-61
2022/01/23 01:49:13;;;;;;;2.10;2.00;;;5.60;99.90;;;;;;5041929;28;20211;-62
2022/01/23 01:51:43;;;;;;;2.00;1.90;;;5.50;99.90;;;;;;5049671;28;20613;-62
2022/01/23 01:54:13;;;;;;;2.10;2.00;;;5.50;99.90;;;;;;5053242;28;20211;-61
2022/01/23 01:56:50;;;;;;;2.00;1.90;;;5.50;99.90;;;;;;5053541;28;20200;-62
2022/01/23 01:59:45;;;;;;;2.00;1.90;;;5.50;99.90;;;;;;5053134;28;20242;-62
2022/01/23 02:10:26;;;;;;;2.20;2.10;;;5.40;99.90;;;;;;5053561;28;20190;-62
2022/01/23 02:13:04;;;;;;;2.20;2.10;;;5.50;99.90;;;;;;5052807;28;20255;-61
2022/01/23 02:24:46;;;;;;;2.10;2.00;;;5.40;99.90;;;;;;5027025;28;20208;-61
2022/01/23 02:52:01;;;;;;;2.10;2.00;;;5.30;99.90;;;;;;5052504;28;20199;-62
2022/01/23 02:54:45;;;;;;;1.63;1.60;;;5.20;99.90;;;;;;5053025;28;20188;-63
2022/01/23 02:57:20;;;;;;;1.77;1.67;;;5.20;99.90;;;;;;5052271;28;20192;-62
2022/01/23 02:59:49;;;;;;;1.93;1.83;;;5.20;99.90;;;;;;5052361;28;20246;-62
2022/01/23 03:02:27;;;;;;;2.10;2.00;;;5.20;99.90;;;;;;5052273;28;20238;-63
2022/01/23 03:05:00;;;;;;;2.00;1.90;;;5.10;99.90;;;;;;5052242;28;20582;-63
2022/01/23 03:07:55;;;;;;;1.87;1.77;;;5.10;99.90;;;;;;5052388;28;20203;-62
2022/01/23 03:10:27;;;;;;;2.00;1.90;;;5.10;99.90;;;;;;5052287;28;20208;-62
2022/01/23 03:16:13;;;;;;;2.07;1.97;;;5.00;99.90;;;;;;5051982;28;20177;-62
2022/01/23 03:24:30;;;;;;;1.90;1.80;;;5.00;99.90;;;;;;5051577;28;20988;-63
2022/01/23 03:27:05;;;;;;;1.80;1.70;;;5.00;99.90;;;;;;5052107;28;20198;-62
2022/01/23 03:29:52;;;;;;;2.00;1.90;;;5.00;99.90;;;;;;5051831;28;20253;-62
2022/01/23 03:32:24;;;;;;;2.20;2.10;;;5.10;99.90;;;;;;5042647;28;20315;-62
2022/01/23 03:34:51;;;;;;;2.03;1.93;;;5.10;99.90;;;;;;5041143;28;20253;-63
2022/01/23 03:37:18;;;;;;;1.83;1.73;;;5.10;99.90;;;;;;5052046;28;20734;-63
2022/01/23 03:39:45;;;;;;;2.10;2.00;;;5.10;99.90;;;;;;5051820;28;20319;-62
2022/01/23 03:42:14;;;;;;;1.83;1.73;;;5.10;99.90;;;;;;5051490;28;20318;-62
2022/01/23 03:44:51;;;;;;;2.03;1.93;;;5.10;99.90;;;;;;5051577;28;20220;-63
2022/01/23 03:47:32;;;;;;;1.83;1.73;;;5.10;99.90;;;;;;5052143;28;20194;-62
2022/01/23 03:49:58;;;;;;;1.73;1.67;;;5.10;99.90;;;;;;5051810;28;20199;-63
2022/01/23 03:52:26;;;;;;;1.93;1.83;;;5.10;99.90;;;;;;5051448;28;20315;-62
2022/01/23 03:54:53;;;;;;;1.57;1.50;;;5.10;99.90;;;;;;5051801;28;20287;-61
2022/01/23 03:57:22;;;;;;;1.70;1.60;;;5.20;99.90;;;;;;5051638;28;20239;-63
2022/01/23 03:59:49;;;;;;;1.90;1.80;;;5.20;99.90;;;;;;5051660;28;20227;-63
2022/01/23 04:02:16;;;;;;;2.10;2.00;;;5.10;99.90;;;;;;5051255;28;20683;-63
2022/01/23 04:04:43;;;;;;;1.77;1.67;;;5.10;99.90;;;;;;5051243;28;20299;-62
2022/01/23 04:07:13;;;;;;;2.17;2.07;;;5.00;99.90;;;;;;5051668;28;20208;-61
2022/01/23 04:09:41;;;;;;;1.83;1.73;;;5.00;99.90;;;;;;5051972;28;20551;-62
2022/01/23 04:12:11;;;;;;;2.07;1.97;;;5.00;99.90;;;;;;5055682;28;20273;-63
2022/01/23 04:14:48;;;;;;;1.80;1.70;;;4.90;99.90;;;;;;5051303;28;20578;-61
2022/01/23 04:20:19;;;;;;;1.63;1.63;;;5.00;99.90;;;;;;5051303;28;20227;-62
2022/01/23 04:33:49;;;;;;;1.50;1.50;;;5.10;99.90;;;;;;5035099;28;20836;-61
2022/01/23 05:01:02;;;;;;;1.80;1.70;;;4.90;99.90;;;;;;5034648;28;20219;-63
2022/01/23 05:06:21;;;;;;;1.80;1.70;;;4.90;99.90;;;;;;5021681;28;20761;-61
2022/01/23 05:08:48;;;;;;;1.90;1.80;;;4.90;99.90;;;;;;5034440;28;20189;-62
2022/01/23 05:11:15;;;;;;;1.70;1.60;;;4.90;99.90;;;;;;5034590;28;20299;-62
2022/01/23 05:13:42;;;;;;;1.53;1.53;;;4.90;99.90;;;;;;5034467;28;20224;-63
2022/01/23 05:16:11;;;;;;;1.77;1.67;;;4.90;99.90;;;;;;5034677;28;20205;-61
2022/01/23 05:18:40;;;;;;;1.50;1.50;;;4.90;99.90;;;;;;5034293;28;20300;-62
2022/01/23 05:21:22;;;;;;;1.70;1.60;;;4.90;99.90;;;;;;5034537;28;20204;-62
2022/01/23 05:23:49;;;;;;;1.53;1.50;;;4.90;99.90;;;;;;5034226;28;20239;-62
2022/01/23 05:26:16;;;;;;;1.80;1.70;;;4.80;99.90;;;;;;5034142;28;20192;-64
2022/01/23 05:28:43;;;;;;;1.70;1.60;;;4.80;99.90;;;;;;5033982;28;20200;-63
2022/01/23 05:31:09;;;;;;;1.80;1.70;;;4.80;99.90;;;;;;5034068;28;20246;-62
2022/01/23 05:33:36;;;;;;;1.40;1.40;;;4.80;99.90;;;;;;5033929;28;20231;-61
2022/01/23 05:36:05;;;;;;;1.70;1.60;;;4.80;99.90;;;;;;5033725;28;20236;-62
2022/01/23 05:38:33;;;;;;;1.40;1.40;;;4.90;99.90;;;;;;5034398;28;20243;-61
2022/01/23 05:41:01;;;;;;;1.30;1.30;;;5.00;99.90;;;;;;5034219;28;20205;-61
2022/01/23 05:43:28;;;;;;;1.20;1.20;;;5.00;99.90;;;;;;5034133;28;20236;-61
2022/01/23 05:45:55;;;;;;;1.37;1.37;;;5.00;99.90;;;;;;5034383;28;20626;-62
2022/01/23 05:48:21;;;;;;;1.50;1.40;;;5.00;99.90;;;;;;5035216;28;20288;-61
2022/01/23 05:50:49;;;;;;;1.40;1.40;;;5.10;99.90;;;;;;5041054;28;20654;-62
2022/01/23 05:53:17;;;;;;;1.33;1.33;;;5.10;99.90;;;;;;5042384;28;20232;-60
2022/01/23 05:55:44;;;;;;;1.47;1.37;;;5.10;99.90;;;;;;5042918;28;20208;-61
2022/01/23 05:58:11;;;;;;;1.30;1.30;;;4.90;99.90;;;;;;5041443;28;20208;-60
2022/01/23 06:00:38;;;;;;;1.40;1.40;;;4.90;99.90;;;;;;5035587;28;20240;-61
2022/01/23 06:03:05;;;;;;;1.23;1.23;;;4.90;99.90;;;;;;5033641;28;20320;-60
2022/01/23 06:05:32;;;;;;;1.40;1.40;;;4.90;99.90;;;;;;5033370;28;20274;-62
2022/01/23 06:07:59;;;;;;;1.50;1.50;;;4.90;99.90;;;;;;5033938;28;20296;-62
2022/01/23 06:10:29;;;;;;;1.50;1.50;;;4.90;99.90;;;;;;5034039;28;20246;-61
2022/01/23 06:12:56;;;;;;;1.47;1.40;;;4.90;99.90;;;;;;5033403;28;20247;-62
2022/01/23 06:15:23;;;;;;;1.30;1.30;;;5.00;99.90;;;;;;5035684;28;20232;-62
2022/01/23 06:17:49;;;;;;;1.33;1.30;;;5.00;99.90;;;;;;5035907;28;20200;-62
2022/01/23 06:20:16;;;;;;;1.40;1.40;;;5.10;99.90;;;;;;5033524;28;20722;-63
2022/01/23 06:22:45;;;;;;;1.10;1.10;;;5.20;99.90;;;;;;5033728;28;20319;-62
2022/01/23 06:25:14;;;;;;;1.30;1.30;;;5.20;99.90;;;;;;5037679;28;20201;-61
2022/01/23 06:27:43;;;;;;;1.30;1.30;;;5.10;99.90;;;;;;5049160;28;20201;-62
2022/01/23 06:30:10;;;;;;;1.20;1.20;;;5.20;99.90;;;;;;5048632;28;20201;-61
2022/01/23 06:32:38;;;;;;;1.20;1.20;;;5.20;99.90;;;;;;5048440;28;20232;-64
2022/01/23 06:35:06;;;;;;;1.10;1.10;;;5.20;99.90;;;;;;5050220;28;20299;-63
2022/01/23 06:37:33;;;;;;;1.40;1.40;;;5.10;99.90;;;;;;5050768;28;20718;-61
2022/01/23 06:40:00;;;;;;;1.20;1.20;;;5.20;99.90;;;;;;5050108;28;20316;-62
2022/01/23 06:42:26;;;;;;;1.37;1.37;;;5.20;99.90;;;;;;5042619;28;20315;-62
2022/01/23 06:44:55;;;;;;;1.37;1.37;;;5.20;99.90;;;;;;5033045;28;20350;-61
2022/01/23 06:47:21;;;;;;;1.60;1.50;;;5.10;99.90;;;;;;5032968;28;20255;-62
2022/01/23 06:49:48;;;;;;;1.30;1.30;;;5.10;99.90;;;;;;5032732;28;20600;-60
2022/01/23 06:52:15;;;;;;;1.53;1.53;;;5.10;99.90;;;;;;5032780;28;20237;-62
2022/01/23 06:54:42;;;;;;;1.23;1.23;;;5.10;99.90;;;;;;5032759;28;20244;-60
2022/01/23 06:57:09;;;;;;;1.30;1.30;;;5.10;99.90;;;;;;5033452;28;20288;-62
2022/01/23 06:59:36;;;;;;;1.30;1.30;;;5.00;99.90;;;;;;5032956;28;20594;-61
2022/01/23 07:02:05;;;;;;;1.17;1.17;;;5.00;99.90;;;;;;5032770;28;20226;-61
2022/01/23 07:04:32;;;;;;;1.40;1.40;;;5.00;99.90;;;;;;5032744;28;20211;-62
2022/01/23 07:06:59;;;;;;;1.20;1.20;;;4.90;99.90;;;;;;5035292;28;20214;-63
2022/01/23 07:09:26;;;;;;;1.30;1.30;;;5.00;99.90;;;;;;5047772;28;20204;-62
2022/01/23 07:11:53;;;;;;;1.40;1.40;;;5.00;99.90;;;;;;5045496;28;20208;-63
2022/01/23 07:14:20;;;;;;;1.57;1.47;;;4.90;99.90;;;;;;5046092;28;20228;-62
2022/01/23 07:16:47;;;;;;;1.50;1.50;;;4.90;99.90;;;;;;5046048;28;20204;-61
2022/01/23 07:19:15;;;;;;;1.40;1.40;;;5.00;99.90;;;;;;5032816;28;20307;-61
2022/01/23 07:21:42;;;;;;;1.40;1.40;;;5.00;99.90;;;;;;5032905;28;20215;-62
2022/01/23 07:24:09;;;;;;;1.50;1.50;;;5.00;99.90;;;;;;5041659;28;20242;-61
2022/01/23 07:26:36;;;;;;;1.50;1.50;;;4.90;99.90;;;;;;5042666;28;20211;-62
2022/01/23 07:29:05;;;;;;;1.47;1.47;;;4.90;99.90;;;;;;5041861;28;20197;-62
2022/01/23 07:31:45;;;;;;;1.60;1.50;;;4.90;99.90;;;;;;5041479;28;20295;-60
2022/01/23 07:34:13;;;;;;;1.47;1.47;;;4.90;99.90;;;;;;5039514;28;20288;-62
2022/01/23 07:36:42;;;;;;;1.43;1.43;;;4.90;99.90;;;;;;5032179;28;20208;-61
2022/01/23 07:39:09;;;;;;;1.20;1.20;;;5.00;99.90;;;;;;5032389;28;20612;-62
2022/01/23 07:41:36;;;;;;;1.20;1.20;;;4.90;99.90;;;;;;5032939;28;20208;-61
2022/01/23 07:44:03;;;;;;;1.33;1.33;;;4.90;99.90;;;;;;5032374;28;20311;-63
2022/01/23 07:46:30;;;;;;;1.30;1.30;;;5.00;99.90;;;;;;5032478;28;20258;-61
2022/01/23 07:48:57;;;;;;;1.50;1.50;;;5.00;99.90;;;;;;5032240;28;20710;-60
2022/01/23 07:51:24;;;;;;;1.60;1.50;;;5.00;99.90;;;;;;5032896;28;20681;-63
2022/01/23 07:53:52;;;;;;;1.33;1.33;;;5.00;99.90;;;;;;5032272;28;20315;-61
2022/01/23 07:56:19;;;;;;;1.30;1.30;;;5.00;99.90;;;;;;5032853;28;20290;-60
2022/01/23 07:58:46;;;;;;;1.27;1.27;;;5.00;99.90;;;;;;5031870;28;20208;-61
2022/01/23 08:01:13;;;;;;;1.30;1.30;;;5.10;99.90;;;;;;5029275;28;20200;-60
2022/01/23 08:03:40;;;;;;;1.30;1.30;;;5.10;99.90;;;;;;5042371;28;20224;-61
2022/01/23 08:06:07;;;;;;;1.30;1.30;;;5.10;99.90;;;;;;5059697;28;20290;-61
2022/01/23 08:08:34;;;;;;;1.40;1.40;;;5.00;99.90;;;;;;5060496;28;20227;-62
2022/01/23 08:11:02;;;;;;;1.30;1.30;;;5.10;99.90;;;;;;5060079;28;20286;-61
2022/01/23 08:13:30;;;;;;;1.20;1.20;;;5.10;99.90;;;;;;5060733;28;20307;-62
2022/01/23 08:15:56;;;;;;;1.40;1.40;;;5.20;99.90;;;;;;5043361;28;20200;-61
2022/01/23 08:18:24;;;;;;;1.20;1.20;;;5.20;99.90;;;;;;5042644;28;20295;-60
2022/01/23 08:20:51;;;;;;;1.30;1.30;;;5.20;99.90;;;;;;5040668;28;20312;-61
2022/01/23 08:23:18;;;;;;;1.30;1.30;;;5.30;99.90;;;;;;5042732;28;20312;-62
2022/01/23 08:25:45;;;;;;;1.30;1.30;;;5.30;99.90;;;;;;5049451;28;20262;-63
2022/01/23 08:28:14;;;;;;;1.30;1.30;;;5.30;99.90;;;;;;5046630;28;20296;-62
2022/01/23 08:30:42;;;;;;;1.30;1.30;;;5.30;99.90;;;;;;5046573;28;20603;-60
2022/01/23 08:33:09;;;;;;;1.40;1.40;;;5.20;99.90;;;;;;5057597;28;20587;-61
2022/01/23 08:35:35;;;;;;;1.10;1.10;;;5.30;99.90;;;;;;5050424;28;20239;-61
2022/01/23 08:38:02;;;;;;;1.20;1.20;;;5.30;99.90;;;;;;5060749;28;20299;-62
2022/01/23 08:40:47;;;;;;;1.20;1.20;;;5.30;99.90;;;;;;5045072;28;20316;-62
2022/01/23 08:43:17;;;;;;;1.40;1.40;;;5.30;99.90;;;;;;5048869;28;20694;-59
2022/01/23 08:45:45;;;;;;;1.47;1.47;;;5.30;99.90;;;;;;5047032;28;20240;-61
2022/01/23 08:48:12;;;;;;;1.30;1.30;;;5.30;99.90;;;;;;5038733;28;20207;-62
2022/01/23 08:50:39;;;;;;;1.20;1.20;;;5.30;99.90;;;;;;5043438;28;20291;-62
2022/01/23 08:53:07;;;;;;;1.23;1.23;;;5.30;99.90;;;;;;5042666;28;20236;-61
2022/01/23 08:55:34;;;;;;;1.53;1.47;;;5.40;99.90;;;;;;5042990;28;20232;-62
2022/01/23 08:58:01;;;;;;;1.40;1.30;;;5.40;99.90;;;;;;5035596;28;20280;-61
2022/01/23 09:00:30;;;;;;;1.77;1.67;;;5.40;99.90;;;;;;5032265;28;20282;-60
2022/01/23 09:02:59;;;;;;;1.30;1.30;;;5.40;99.90;;;;;;5035545;28;20300;-61
2022/01/23 09:05:26;;;;;;;1.30;1.30;;;5.50;99.90;;;;;;5040935;28;20208;-62
2022/01/23 09:07:53;;;;;;;1.53;1.50;;;5.40;99.90;;;;;;5051894;28;20207;-62
2022/01/23 09:10:25;;;;;;;1.27;1.27;;;5.40;99.90;;;;;;5039845;28;20287;-62
2022/01/23 09:15:37;;;;;;;1.63;1.60;;;5.40;99.90;;;;;;5023238;28;20738;-60
2022/01/23 09:18:05;;;;;;;1.60;1.50;;;5.40;99.90;;;;;;5033195;28;20279;-61
2022/01/23 09:20:32;;;;;;;1.37;1.37;;;5.40;99.90;;;;;;5029043;28;20300;-63
2022/01/23 09:22:59;;;;;;;1.60;1.60;;;5.40;99.90;;;;;;5028325;28;20224;-62
2022/01/23 09:25:26;;;;;;;1.43;1.43;;;5.40;99.90;;;;;;5024796;28;20201;-63
2022/01/23 09:27:53;;;;;;;1.57;1.47;;;5.50;99.90;;;;;;5032333;28;20231;-61
2022/01/23 09:30:21;;;;;;;1.30;1.30;;;5.50;99.90;;;;;;5044123;28;20233;-60
2022/01/23 09:32:51;;;;;;;1.40;1.40;;;5.50;99.90;;;;;;5033321;28;20224;-63
2022/01/23 09:35:19;;;;;;;1.30;1.30;;;5.60;99.90;;;;;;5037843;28;20272;-61
2022/01/23 09:37:46;;;;;;;1.70;1.60;;;5.60;99.90;;;;;;5036666;28;20284;-63
2022/01/23 09:40:14;;;;;;;1.30;1.30;;;5.70;99.90;;;;;;5042533;28;20220;-62
2022/01/23 09:42:46;;;;;;;1.40;1.40;;;5.70;99.90;;;;;;5033676;28;20762;-63
2022/01/23 09:45:14;;;;;;;1.30;1.30;;;5.70;99.90;;;;;;5037938;28;20299;-61
2022/01/23 09:47:42;;;;;;;1.43;1.43;;;5.70;99.90;;;;;;5051405;28;20215;-62
2022/01/23 09:50:13;;;;;;;1.47;1.40;;;5.70;99.90;;;;;;5046127;28;20204;-64
2022/01/23 09:52:41;;;;;;;1.40;1.40;;;5.70;99.90;;;;;;5053311;28;20803;-64
2022/01/23 09:55:11;;;;;;;1.90;1.80;;;5.70;99.90;;;;;;5053202;28;20240;-62
2022/01/23 09:57:41;;;;;;;1.37;1.37;;;5.80;99.90;;;;;;5054132;28;20877;-62
2022/01/23 10:00:11;;;;;;;1.40;1.40;;;5.80;99.90;;;;;;5053277;28;20311;-63
2022/01/23 10:02:38;;;;;;;1.50;1.50;;;5.80;99.90;;;;;;5053659;28;20235;-63
2022/01/23 10:05:06;;;;;;;1.50;1.50;;;5.80;99.90;;;;;;5052774;28;20742;-63
2022/01/23 10:07:38;;;;;;;1.60;1.50;;;5.90;99.90;;;;;;5053992;28;20765;-62
2022/01/23 10:10:11;;;;;;;1.60;1.50;;;5.90;99.90;;;;;;5054092;28;20200;-62
2022/01/23 10:12:40;;;;;;;1.40;1.40;;;5.90;99.90;;;;;;5054136;28;20311;-62
2022/01/23 10:15:08;;;;;;;1.30;1.30;;;6.00;99.90;;;;;;5053459;28;20230;-62
2022/01/23 10:17:36;;;;;;;1.50;1.40;;;6.00;99.90;;;;;;5053648;28;20240;-69
2022/01/23 10:20:04;;;;;;;1.50;1.40;;;6.10;99.90;;;;;;5056789;28;20216;-63
2022/01/23 10:22:32;;;;;;;1.40;1.40;;;6.10;99.90;;;;;;5054936;28;20722;-64
2022/01/23 10:25:07;;;;;;;1.40;1.40;;;6.10;99.90;;;;;;5052561;28;20212;-64
2022/01/23 10:27:59;;;;;;;1.30;1.30;;;6.20;99.90;;;;;;5053063;28;20284;-63
2022/01/23 10:30:28;;;;;;;1.30;1.30;;;6.20;99.90;;;;;;5039299;28;20244;-62
2022/01/23 10:33:06;;;;;;;1.33;1.33;;;6.30;99.90;;;;;;5041712;28;20371;-64
2022/01/23 10:35:33;;;;;;;1.43;1.33;;;6.30;99.90;;;;;;5043389;28;20207;-64
2022/01/23 10:38:07;;;;;;;1.50;1.50;;;6.30;99.90;;;;;;5044940;28;20291;-62
2022/01/23 10:40:38;;;;;;;1.70;1.60;;;6.40;99.90;;;;;;5049214;28;20291;-63
2022/01/23 10:48:45;;;;;;;1.20;1.20;;;6.60;99.90;;;;;;5033356;28;20211;-63
2022/01/23 10:51:25;;;;;;;1.20;1.20;;;6.60;99.90;;;;;;5033097;28;20662;-61
2022/01/23 10:54:20;;;;;;;1.20;1.20;;;6.70;99.90;;;;;;5032356;28;20236;-63
2022/01/23 10:57:01;;;;;;;1.40;1.30;;;6.80;99.90;;;;;;5033647;28;20197;-63
2022/01/23 10:59:43;;;;;;;1.40;1.40;;;6.80;99.90;;;;;;5036705;28;20208;-63
2022/01/23 11:02:12;;;;;;;1.40;1.40;;;6.80;99.90;;;;;;5047720;28;20307;-64
2022/01/23 11:04:59;;;;;;;1.57;1.47;;;6.80;99.90;;;;;;5038688;28;20224;-63
2022/01/23 11:07:28;;;;;;;1.40;1.40;;;6.90;99.90;;;;;;5033650;28;20193;-64
2022/01/23 11:10:04;;;;;;;1.70;1.60;;;7.00;99.90;;;;;;5032029;28;20201;-61
2022/01/23 11:18:19;;;;;;;3.17;2.97;;;7.20;99.90;;;;;;4993660;28;20206;-62
2022/01/23 11:20:49;;;;;;;2.00;1.90;;;7.30;99.90;;;;;;5032235;28;20697;-64
2022/01/23 11:23:18;;;;;;;2.37;2.27;;;7.20;99.90;;;;;;5032949;28;20228;-64
2022/01/23 11:25:47;;;;;;;2.60;2.50;;;7.10;99.90;;;;;;5032249;28;20295;-63
2022/01/23 11:28:15;;;;;;;2.07;1.97;;;7.00;99.90;;;;;;5040106;28;20208;-64
2022/01/23 11:30:46;;;;;;;2.30;2.20;;;6.90;99.90;;;;;;5024566;28;20201;-63
2022/01/23 11:33:16;;;;;;;2.40;2.30;;;7.00;99.90;;;;;;5022105;28;20239;-62
2022/01/23 11:35:43;;;;;;;2.50;2.40;;;7.10;99.90;;;;;;5025262;28;20344;-64
2022/01/23 11:38:14;;;;;;;2.40;2.30;;;6.90;99.90;;;;;;5045321;28;20200;-62
2022/01/23 11:50:39;;;;;;;2.50;2.40;;;6.80;99.90;;;;;;5034277;28;20284;-62
2022/01/23 11:55:00;;;;;;;2.93;2.77;;;6.80;99.90;;;;;;5019309;28;20244;-62
2022/01/23 11:57:43;;;;;;;2.73;2.63;;;6.90;99.90;;;;;;5013565;28;20209;-61
2022/01/23 12:00:16;;;;;;;2.90;2.70;;;7.00;99.90;;;;;;5018828;28;20227;-61
2022/01/23 12:02:44;;;;;;;2.70;2.60;;;7.00;99.90;;;;;;5015876;28;20217;-62
2022/01/23 12:05:26;;;;;;;2.70;2.60;;;7.00;99.90;;;;;;5013582;28;21011;-60
2022/01/23 12:08:23;;;;;;;2.80;2.70;;;7.00;99.90;;;;;;5018751;28;20202;-63
2022/01/23 12:17:31;;;;;;;3.60;3.40;;;6.90;99.90;;;;;;5030273;28;20215;-62
2022/01/23 12:19:59;;;;;;;2.93;2.80;;;6.90;99.90;;;;;;5032231;28;20203;-61
2022/01/23 12:22:30;;;;;;;3.13;2.93;;;6.90;99.90;;;;;;5027380;28;20774;-64
2022/01/23 12:24:59;;;;;;;3.17;3.07;;;6.90;99.90;;;;;;5021628;28;20204;-64
2022/01/23 12:27:28;;;;;;;3.70;3.50;;;7.00;99.90;;;;;;5019433;28;20228;-64
2022/01/23 12:29:57;;;;;;;3.40;3.20;;;7.00;99.90;;;;;;5019639;28;20282;-63
2022/01/23 12:32:29;;;;;;;3.00;2.90;;;7.10;99.90;;;;;;5021414;28;20313;-62
2022/01/23 12:34:59;;;;;;;3.63;3.43;;;7.10;99.90;;;;;;5026797;28;20260;-63
2022/01/23 12:37:26;;;;;;;3.30;3.10;;;7.10;99.90;;;;;;5034510;28;20678;-61
2022/01/23 12:40:24;;;;;;;3.77;3.57;;;7.20;99.90;;;;;;5032992;28;20213;-62
2022/01/23 12:43:05;;;;;;;3.40;3.20;;;7.20;99.90;;;;;;5028230;28;20256;-61
2022/01/23 12:45:52;;;;;;;2.90;2.80;;;7.30;99.90;;;;;;5022424;28;20202;-61
2022/01/23 12:48:49;;;;;;;3.13;3.03;;;7.40;99.90;;;;;;5024477;28;20279;-60
2022/01/23 12:51:38;;;;;;;3.27;3.07;;;7.40;99.90;;;;;;5025823;28;20255;-61
2022/01/23 12:54:15;;;;;;;3.20;3.00;;;7.40;99.90;;;;;;5025428;28;20316;-63
2022/01/23 12:56:44;;;;;;;2.90;2.80;;;7.40;99.90;;;;;;5023981;28;20288;-64
2022/01/23 12:59:19;;;;;;;2.90;2.80;;;7.40;99.90;;;;;;5026283;28;20228;-63
2022/01/23 13:01:47;;;;;;;3.57;3.40;;;7.50;99.90;;;;;;5030955;28;20243;-63
2022/01/23 13:04:17;;;;;;;3.20;3.00;;;7.50;99.90;;;;;;5027570;28;20204;-64
2022/01/23 13:06:52;;;;;;;3.20;3.00;;;7.50;99.90;;;;;;5032534;28;20197;-62
2022/01/23 13:09:27;;;;;;;3.20;3.00;;;7.60;99.90;;;;;;5033011;28;21354;-61
2022/01/23 13:12:06;;;;;;;3.17;3.07;;;7.60;99.90;;;;;;5032550;28;20208;-62
2022/01/23 13:14:48;;;;;;;3.30;3.10;;;7.50;99.90;;;;;;5024821;28;20212;-63
2022/01/23 13:17:33;;;;;;;3.13;2.93;;;7.50;99.90;;;;;;5022010;28;20212;-63
2022/01/23 13:31:12;;;;;;;2.90;2.80;;;7.50;99.90;;;;;;5033578;28;20659;-60
2022/01/23 13:33:39;;;;;;;3.40;3.20;;;7.50;99.90;;;;;;5043166;28;20253;-62
2022/01/23 13:36:12;;;;;;;3.57;3.37;;;7.40;99.90;;;;;;5053978;28;20196;-62
2022/01/23 13:38:39;;;;;;;3.23;3.03;;;7.30;99.90;;;;;;5034617;28;20208;-62
2022/01/23 13:41:22;;;;;;;3.13;3.03;;;7.30;99.90;;;;;;5044203;28;20760;-63
2022/01/23 13:52:35;;;;;;;3.03;2.83;;;7.60;99.90;;;;;;5022638;28;20637;-63
2022/01/23 13:58:14;;;;;;;2.70;2.60;;;7.70;99.90;;;;;;5029301;28;20251;-62
2022/01/23 14:00:44;;;;;;;3.37;3.17;;;7.80;99.90;;;;;;5030621;28;20263;-61
2022/01/23 14:03:12;;;;;;;3.13;2.93;;;7.80;99.90;;;;;;5031458;28;20502;-62
2022/01/23 14:05:39;;;;;;;3.20;3.00;;;7.80;99.90;;;;;;5030452;28;20202;-61
2022/01/23 14:08:07;;;;;;;2.77;2.67;;;7.80;99.90;;;;;;5028670;28;20297;-61
2022/01/23 14:10:36;;;;;;;2.93;2.83;;;7.70;99.90;;;;;;5029162;28;20197;-62
2022/01/23 14:13:08;;;;;;;2.50;2.40;;;7.70;99.90;;;;;;5036770;28;20250;-62
2022/01/23 14:15:42;;;;;;;3.07;2.87;;;7.90;99.90;;;;;;5042498;28;20226;-61
2022/01/23 14:18:12;;;;;;;2.77;2.67;;;7.90;99.90;;;;;;5036326;28;20267;-61
2022/01/23 14:20:41;;;;;;;2.77;2.67;;;7.90;99.90;;;;;;5040288;28;20240;-61
2022/01/23 14:23:17;;;;;;;2.90;2.80;;;7.90;99.90;;;;;;5038818;28;20252;-62
2022/01/23 14:25:49;;;;;;;2.73;2.63;;;7.90;99.90;;;;;;5035158;28;20211;-62
2022/01/23 14:28:19;;;;;;;2.93;2.80;;;7.90;99.90;;;;;;5033784;28;20207;-60
2022/01/23 14:30:49;;;;;;;3.07;2.87;;;8.00;99.90;;;;;;5036342;28;20777;-61
2022/01/23 14:33:18;;;;;;;3.03;2.83;;;8.00;99.90;;;;;;5035540;28;20255;-61
2022/01/23 14:35:45;;;;;;;3.50;3.30;;;8.00;99.90;;;;;;5038666;28;20205;-60
2022/01/23 14:38:16;;;;;;;2.90;2.80;;;8.00;99.90;;;;;;5038007;28;20244;-62
2022/01/23 14:40:57;;;;;;;3.30;3.10;;;7.90;99.90;;;;;;5035050;28;20197;-62
2022/01/23 14:43:31;;;;;;;3.23;3.03;;;7.90;99.90;;;;;;5032247;28;20224;-61
2022/01/23 14:46:00;;;;;;;2.80;2.70;;;7.80;99.90;;;;;;5034810;28;20211;-61
2022/01/23 14:48:33;;;;;;;2.60;2.50;;;7.80;99.90;;;;;;5035409;28;20260;-61
2022/01/23 14:51:04;;;;;;;2.70;2.60;;;8.00;99.90;;;;;;5037007;28;20288;-61
2022/01/23 14:53:35;;;;;;;2.73;2.63;;;8.10;99.90;;;;;;5031123;28;20239;-61
2022/01/23 14:56:05;;;;;;;2.70;2.60;;;8.10;99.90;;;;;;5031016;28;20224;-61
2022/01/23 14:58:34;;;;;;;2.30;2.20;;;8.20;99.90;;;;;;5033951;28;20288;-62
2022/01/23 15:01:03;;;;;;;1.83;1.73;;;8.20;99.90;;;;;;5030887;28;20296;-64
2022/01/23 15:03:32;;;;;;;1.37;1.37;;;8.20;99.90;;;;;;5031958;28;20263;-62
2022/01/23 15:06:01;;;;;;;1.10;1.10;;;8.10;99.90;;;;;;5029624;28;20284;-62
2022/01/23 15:08:29;;;;;;;1.00;1.00;;;8.20;99.90;;;;;;5025788;28;20236;-61
2022/01/23 15:10:59;;;;;;;0.90;0.90;;;8.20;99.90;;;;;;5025107;28;20205;-61
2022/01/23 15:13:28;;;;;;;1.20;1.20;;;8.10;99.90;;;;;;5024051;28;20242;-61
2022/01/23 15:15:56;;;;;;;0.90;0.90;;;8.00;99.90;;;;;;5035708;28;20201;-62
2022/01/23 15:18:23;;;;;;;1.00;1.00;;;8.00;99.90;;;;;;5027717;28;20627;-62
2022/01/23 15:20:50;;;;;;;1.43;1.10;;;7.90;99.90;;;;;;5036475;28;20667;-61
2022/01/23 15:23:18;;;;;;;0.93;0.93;;;7.90;99.90;;;;;;5036828;28;20295;-62
2022/01/23 15:25:46;;;;;;;0.90;0.90;;;7.90;99.90;;;;;;5025095;28;20201;-62
2022/01/23 15:28:15;;;;;;;1.00;1.00;;;7.90;99.90;;;;;;5022346;28;20235;-61
2022/01/23 15:30:44;;;;;;;1.10;1.10;;;7.90;99.90;;;;;;5023659;28;20226;-62
2022/01/23 15:33:11;;;;;;;1.30;1.30;;;7.80;99.90;;;;;;5022089;28;20226;-61
2022/01/23 15:35:46;;;;;;;1.30;1.30;;;7.80;99.90;;;;;;5021757;28;20225;-61
2022/01/23 15:38:14;;;;;;;1.00;1.00;;;7.70;99.90;;;;;;5024006;28;20207;-61
2022/01/23 15:40:40;;;;;;;0.90;0.90;;;7.70;99.90;;;;;;5017945;28;20201;-61
2022/01/23 15:43:07;;;;;;;1.00;1.00;;;7.60;99.90;;;;;;5021722;28;20308;-62
2022/01/23 15:45:36;;;;;;;1.00;1.00;;;7.60;99.90;;;;;;5017148;28;20292;-61
2022/01/23 15:48:03;;;;;;;1.00;1.00;;;7.60;99.90;;;;;;5022110;28;20205;-61
2022/01/23 15:50:30;;;;;;;1.10;1.10;;;7.60;99.90;;;;;;5018414;28;20282;-61
2022/01/23 15:52:57;;;;;;;1.10;1.10;;;7.60;99.90;;;;;;5019992;28;20312;-62
2022/01/23 15:55:27;;;;;;;1.00;1.00;;;7.60;99.90;;;;;;5016405;28;20201;-61
2022/01/23 15:57:55;;;;;;;1.20;1.20;;;7.50;99.90;;;;;;5019628;28;20208;-63
2022/01/23 16:00:22;;;;;;;1.20;1.20;;;7.50;99.90;;;;;;5016725;28;20292;-62
2022/01/23 16:02:50;;;;;;;1.00;1.00;;;7.50;99.90;;;;;;5019264;28;20236;-63
2022/01/23 16:05:19;;;;;;;1.20;1.20;;;7.50;99.90;;;;;;5015293;28;20208;-64
2022/01/23 16:07:46;;;;;;;1.10;1.10;;;7.40;99.90;;;;;;5016290;28;20204;-61